createdAt,value
2023-03-31T00:01:01.000Z,89.29
2023-03-31T00:03:29.851Z,89.06
2023-03-31T00:05:58.957Z,89.21
2023-03-31T00:08:30.951Z,89.32
2023-03-31T00:11:00.961Z,88.89
2023-03-31T00:13:29.430Z,88.93
2023-03-31T00:15:58.453Z,89.38
2023-03-31T00:18:27.166Z,89.37
2023-03-31T00:20:58.882Z,89.44
2023-03-31T00:23:30.138Z,89.42
2023-03-31T00:25:58.721Z,89.21
2023-03-31T00:28:27.157Z,89.30
2023-03-31T00:30:55.530Z,89.40
2023-03-31T00:33:23.991Z,89.45
2023-03-31T00:35:52.947Z,89.36
2023-03-31T00:38:22.126Z,89.18
2023-03-31T00:40:53.909Z,89.20
2023-03-31T00:43:31.200Z,89.10
2023-03-31T00:46:18.124Z,89.01
2023-03-31T00:48:50.340Z,88.84
2023-03-31T00:51:20.300Z,88.25
2023-03-31T00:53:52.029Z,88.41
2023-03-31T00:56:22.455Z,88.43
2023-03-31T00:58:51.051Z,88.59
2023-03-31T01:01:22.143Z,88.49
2023-03-31T01:03:52.951Z,88.29
2023-03-31T01:06:21.441Z,88.00
2023-03-31T01:08:51.310Z,88.60
2023-03-31T01:11:22.678Z,88.10
2023-03-31T01:13:53.025Z,88.37
2023-03-31T01:16:21.495Z,88.41
2023-03-31T01:18:50.602Z,88.30
2023-03-31T01:21:40.050Z,88.40
2023-03-31T01:24:19.381Z,88.70
2023-03-31T01:26:59.035Z,87.98
2023-03-31T01:29:44.133Z,88.45
2023-03-31T01:32:22.417Z,88.48
2023-03-31T01:35:08.704Z,88.25
2023-03-31T01:37:52.330Z,88.11
2023-03-31T01:40:26.786Z,88.21
2023-03-31T01:42:58.469Z,88.10
2023-03-31T01:45:37.595Z,88.04
2023-03-31T01:48:13.258Z,88.15
2023-03-31T01:50:46.062Z,88.00
2023-03-31T01:53:18.494Z,88.05
2023-03-31T01:55:55.954Z,88.05
2023-03-31T01:58:27.255Z,88.11
2023-03-31T02:01:02.023Z,88.26
2023-03-31T02:03:34.656Z,88.07
2023-03-31T02:06:09.913Z,87.86
2023-03-31T02:08:41.889Z,87.96
2023-03-31T02:11:11.935Z,88.15
2023-03-31T02:13:42.042Z,88.19
2023-03-31T02:16:14.557Z,87.89
2023-03-31T02:18:45.775Z,88.25
2023-03-31T02:21:14.904Z,88.26
2023-03-31T02:23:45.932Z,88.10
2023-03-31T02:26:17.528Z,88.19
2023-03-31T02:28:46.295Z,88.16
2023-03-31T02:31:19.626Z,88.15
2023-03-31T02:33:48.796Z,88.36
2023-03-31T02:36:17.622Z,88.18
2023-03-31T02:38:49.522Z,88.26
2023-03-31T02:41:19.451Z,88.42
2023-03-31T02:43:47.944Z,88.40
2023-03-31T02:46:16.372Z,88.44
2023-03-31T02:48:46.025Z,88.36
2023-03-31T02:51:24.967Z,88.23
2023-03-31T02:54:07.897Z,88.56
2023-03-31T02:57:01.680Z,88.74
2023-03-31T02:59:40.971Z,88.56
2023-03-31T03:02:15.007Z,88.61
2023-03-31T03:04:55.938Z,88.80
2023-03-31T03:07:26.889Z,88.89
2023-03-31T03:10:01.383Z,89.06
2023-03-31T03:12:35.514Z,88.94
2023-03-31T03:15:07.275Z,89.46
2023-03-31T03:17:39.444Z,89.59
2023-03-31T03:20:09.786Z,89.65
2023-03-31T03:22:38.817Z,89.96
2023-03-31T03:25:09.708Z,89.90
2023-03-31T03:27:39.957Z,89.66
2023-03-31T03:30:10.015Z,90.18
2023-03-31T03:32:38.884Z,90.48
2023-03-31T03:35:08.083Z,90.58
2023-03-31T03:37:36.429Z,90.94
2023-03-31T03:40:06.217Z,90.81
2023-03-31T03:42:35.007Z,91.10
2023-03-31T03:45:05.036Z,91.38
2023-03-31T03:47:33.511Z,91.80
2023-03-31T03:50:01.801Z,91.20
2023-03-31T03:52:30.653Z,91.51
2023-03-31T03:54:59.100Z,91.64
2023-03-31T03:57:27.629Z,91.80
2023-03-31T03:59:56.189Z,91.46
2023-03-31T04:02:29.038Z,91.57
2023-03-31T04:04:58.379Z,91.39
2023-03-31T04:07:27.264Z,92.27
2023-03-31T04:09:55.690Z,92.22
2023-03-31T04:12:24.079Z,91.92
2023-03-31T04:14:52.593Z,92.19
2023-03-31T04:17:33.805Z,91.70
2023-03-31T04:20:06.071Z,91.66
2023-03-31T04:22:41.239Z,91.85
2023-03-31T04:25:15.161Z,92.05
2023-03-31T04:27:46.958Z,91.98
2023-03-31T04:30:23.091Z,92.36
2023-03-31T04:32:54.309Z,92.40
2023-03-31T04:35:26.334Z,92.74
2023-03-31T04:37:59.429Z,92.43
2023-03-31T04:40:27.984Z,92.69
2023-03-31T04:42:56.424Z,92.59
2023-03-31T04:45:25.015Z,92.97
2023-03-31T04:47:53.516Z,93.58
2023-03-31T04:50:23.394Z,93.34
2023-03-31T04:52:52.310Z,93.79
2023-03-31T04:55:20.687Z,92.97
2023-03-31T04:57:49.199Z,93.56
2023-03-31T05:00:18.213Z,93.72
2023-03-31T05:02:46.663Z,93.64
2023-03-31T05:05:15.610Z,93.41
2023-03-31T05:07:46.386Z,94.07
2023-03-31T05:10:14.809Z,93.76
2023-03-31T05:12:43.205Z,93.95
2023-03-31T05:15:12.118Z,94.58
2023-03-31T05:17:40.599Z,94.15
2023-03-31T05:20:09.732Z,94.72
2023-03-31T05:22:38.872Z,94.71
2023-03-31T05:25:10.317Z,94.64
2023-03-31T05:27:39.156Z,94.67
2023-03-31T05:30:08.434Z,94.47
2023-03-31T05:32:36.975Z,94.91
2023-03-31T05:35:05.590Z,94.67
2023-03-31T05:37:34.689Z,94.50
2023-03-31T05:40:04.986Z,95.11
2023-03-31T05:42:34.909Z,94.59
2023-03-31T05:45:03.315Z,94.58
2023-03-31T05:47:32.543Z,94.88
2023-03-31T05:50:01.062Z,95.02
2023-03-31T05:52:29.508Z,94.67
2023-03-31T05:54:57.904Z,94.94
2023-03-31T05:57:26.438Z,94.92
2023-03-31T05:59:56.333Z,95.06
2023-03-31T06:02:25.070Z,95.02
2023-03-31T06:04:53.501Z,94.88
2023-03-31T06:07:22.422Z,94.63
2023-03-31T06:09:50.802Z,94.90
2023-03-31T06:12:19.332Z,95.08
2023-03-31T06:14:47.676Z,94.85
2023-03-31T06:17:17.642Z,94.64
2023-03-31T06:19:46.057Z,95.23
2023-03-31T06:22:14.438Z,95.10
2023-03-31T06:24:42.885Z,95.47
2023-03-31T06:27:11.351Z,95.68
2023-03-31T06:29:39.828Z,95.55
2023-03-31T06:32:08.310Z,94.93
2023-03-31T06:34:38.242Z,95.52
2023-03-31T06:37:06.773Z,95.25
2023-03-31T06:39:35.108Z,95.54
2023-03-31T06:42:04.993Z,95.20
2023-03-31T06:44:34.541Z,95.05
2023-03-31T06:47:02.896Z,95.45
2023-03-31T06:49:31.326Z,95.19
2023-03-31T06:52:01.442Z,95.22
2023-03-31T06:54:29.817Z,95.64
2023-03-31T06:56:58.328Z,95.49
2023-03-31T06:59:26.743Z,95.60
2023-03-31T07:01:55.207Z,95.65
2023-03-31T07:04:23.882Z,94.80
2023-03-31T07:06:52.265Z,95.31
2023-03-31T07:09:23.848Z,95.77
2023-03-31T07:11:52.333Z,95.38
2023-03-31T07:14:20.647Z,95.63
2023-03-31T07:16:51.031Z,95.04
2023-03-31T07:19:19.637Z,94.58
2023-03-31T07:21:47.954Z,94.67
2023-03-31T07:24:16.470Z,95.07
2023-03-31T07:26:46.488Z,95.19
2023-03-31T07:29:14.885Z,95.35
2023-03-31T07:31:43.375Z,94.63
2023-03-31T07:34:11.926Z,94.60
2023-03-31T07:36:41.338Z,93.98
2023-03-31T07:39:09.746Z,94.32
2023-03-31T07:41:38.077Z,94.38
2023-03-31T07:44:07.890Z,94.28
2023-03-31T07:46:36.477Z,94.59
2023-03-31T07:49:04.975Z,93.70
2023-03-31T07:51:33.388Z,94.23
2023-03-31T07:54:01.787Z,93.96
2023-03-31T07:56:30.187Z,93.75
2023-03-31T07:58:58.639Z,93.41
2023-03-31T08:01:29.065Z,94.21
2023-03-31T08:03:57.709Z,93.83
2023-03-31T08:06:27.040Z,93.49
2023-03-31T08:08:55.639Z,94.08
2023-03-31T08:11:24.556Z,93.24
2023-03-31T08:13:53.326Z,93.76
2023-03-31T08:16:21.668Z,93.56
2023-03-31T08:18:52.051Z,92.71
2023-03-31T08:21:22.987Z,92.96
2023-03-31T08:23:55.286Z,92.84
2023-03-31T08:26:24.491Z,92.96
2023-03-31T08:28:53.094Z,92.38
2023-03-31T08:31:26.675Z,91.81
2023-03-31T08:33:57.583Z,90.72
2023-03-31T08:36:26.232Z,90.94
2023-03-31T08:38:54.757Z,89.88
2023-03-31T08:41:35.700Z,89.57
2023-03-31T08:44:06.553Z,88.72
2023-03-31T08:46:36.930Z,88.57
2023-03-31T08:49:07.562Z,87.91
2023-03-31T08:51:38.799Z,87.29
2023-03-31T08:54:08.256Z,86.83
2023-03-31T08:56:40.058Z,85.99
2023-03-31T08:59:17.855Z,85.67
2023-03-31T09:02:02.410Z,85.37
2023-03-31T09:04:45.043Z,85.15
2023-03-31T09:07:17.576Z,85.04
2023-03-31T09:09:51.966Z,84.24
2023-03-31T09:12:22.529Z,83.39
2023-03-31T09:14:56.125Z,82.79
2023-03-31T09:17:26.176Z,82.43
2023-03-31T09:19:59.265Z,81.87
2023-03-31T09:22:30.595Z,81.85
2023-03-31T09:25:02.801Z,81.14
2023-03-31T09:27:35.114Z,81.08
2023-03-31T09:30:05.915Z,80.91
2023-03-31T09:32:34.354Z,81.22
2023-03-31T09:35:15.639Z,80.92
2023-03-31T09:37:44.105Z,81.12
2023-03-31T09:40:18.173Z,81.42
2023-03-31T09:42:47.347Z,81.56
2023-03-31T09:45:17.262Z,81.39
2023-03-31T09:47:47.576Z,81.53
2023-03-31T09:50:17.664Z,81.36
2023-03-31T09:52:48.038Z,81.49
2023-03-31T09:55:35.873Z,80.87
2023-03-31T09:58:08.617Z,80.88
2023-03-31T10:00:37.678Z,80.85
2023-03-31T10:03:08.123Z,80.74
2023-03-31T10:05:40.937Z,81.04
2023-03-31T10:08:21.274Z,80.14
2023-03-31T10:10:51.174Z,79.79
2023-03-31T10:13:22.058Z,79.82
2023-03-31T10:15:53.471Z,79.45
2023-03-31T10:18:23.190Z,79.12
2023-03-31T10:20:54.225Z,78.59
2023-03-31T10:23:26.214Z,78.40
2023-03-31T10:25:55.066Z,78.29
2023-03-31T10:28:24.038Z,78.16
2023-03-31T10:30:55.165Z,78.51
2023-03-31T10:33:25.969Z,78.55
2023-03-31T10:35:59.230Z,78.33
2023-03-31T10:38:29.297Z,78.66
2023-03-31T10:40:59.000Z,79.08
2023-03-31T10:43:28.737Z,79.31
2023-03-31T10:45:59.095Z,79.80
2023-03-31T10:48:28.396Z,79.98
2023-03-31T10:51:00.394Z,80.04
2023-03-31T10:53:29.278Z,80.34
2023-03-31T10:56:11.082Z,80.57
2023-03-31T10:58:52.076Z,80.61
2023-03-31T11:01:36.638Z,81.04
2023-03-31T11:04:16.445Z,80.89
2023-03-31T11:06:54.102Z,80.82
2023-03-31T11:09:36.813Z,80.83
2023-03-31T11:12:11.885Z,81.39
2023-03-31T11:14:44.856Z,81.22
2023-03-31T11:17:19.111Z,81.13
2023-03-31T11:19:53.456Z,80.52
2023-03-31T11:22:27.588Z,80.36
2023-03-31T11:25:07.216Z,80.02
2023-03-31T11:27:50.149Z,79.79
2023-03-31T11:30:21.826Z,79.23
2023-03-31T11:32:57.636Z,78.51
2023-03-31T11:35:43.798Z,78.04
2023-03-31T11:38:30.429Z,78.05
2023-03-31T11:41:02.053Z,77.67
2023-03-31T11:43:34.897Z,77.84
2023-03-31T11:46:06.153Z,78.00
2023-03-31T11:48:39.018Z,77.77
2023-03-31T11:51:11.577Z,78.04
2023-03-31T11:53:43.443Z,77.75
2023-03-31T11:56:12.406Z,77.74
2023-03-31T11:58:43.904Z,77.31
2023-03-31T12:01:18.387Z,77.13
2023-03-31T12:03:52.465Z,76.47
2023-03-31T12:06:23.548Z,76.38
2023-03-31T12:08:59.159Z,76.08
2023-03-31T12:11:31.146Z,75.65
2023-03-31T12:14:03.498Z,75.44
2023-03-31T12:16:37.101Z,74.73
2023-03-31T12:19:09.505Z,74.51
2023-03-31T12:21:40.466Z,74.65
2023-03-31T12:24:13.480Z,74.80
2023-03-31T12:26:48.597Z,74.55
2023-03-31T12:29:23.599Z,74.66
2023-03-31T12:31:54.019Z,73.63
2023-03-31T12:34:24.828Z,73.12
2023-03-31T12:37:02.151Z,72.30
2023-03-31T12:39:40.777Z,71.77
2023-03-31T12:42:25.173Z,70.78
2023-03-31T12:44:58.840Z,69.79
2023-03-31T12:47:41.618Z,68.74
2023-03-31T12:50:21.829Z,67.66
2023-03-31T12:52:56.493Z,65.70
2023-03-31T12:55:42.764Z,64.88
2023-03-31T12:58:22.393Z,64.30
2023-03-31T13:01:07.251Z,64.18
2023-03-31T13:03:45.383Z,63.83
2023-03-31T13:06:33.931Z,64.14
2023-03-31T13:09:05.331Z,64.72
2023-03-31T13:11:39.638Z,65.05
2023-03-31T13:14:13.826Z,65.29
2023-03-31T13:16:43.878Z,65.32
2023-03-31T13:19:14.136Z,66.00
2023-03-31T13:21:53.511Z,66.23
2023-03-31T13:24:25.252Z,66.27
2023-03-31T13:26:56.974Z,66.69
2023-03-31T13:29:26.543Z,67.06
2023-03-31T13:32:05.721Z,67.04
2023-03-31T13:34:39.581Z,67.11
2023-03-31T13:37:17.211Z,67.42
2023-03-31T13:40:08.624Z,67.66
2023-03-31T13:42:54.032Z,67.53
2023-03-31T13:45:29.475Z,68.11
2023-03-31T13:48:05.618Z,67.90
2023-03-31T13:50:53.308Z,68.19
2023-03-31T13:53:30.065Z,68.63
2023-03-31T13:56:10.028Z,68.61
2023-03-31T13:58:49.728Z,68.99
2023-03-31T14:01:36.149Z,69.32
2023-03-31T14:04:15.127Z,69.03
2023-03-31T14:06:48.827Z,69.76
2023-03-31T14:09:22.350Z,69.70
2023-03-31T14:11:50.848Z,69.59
2023-03-31T14:14:20.098Z,69.26
2023-03-31T14:16:50.832Z,69.54
2023-03-31T14:19:30.342Z,69.46
2023-03-31T14:22:06.097Z,69.67
2023-03-31T14:24:39.120Z,69.93
2023-03-31T14:27:13.709Z,69.92
2023-03-31T14:29:45.281Z,69.71
2023-03-31T14:32:21.197Z,69.59
2023-03-31T14:35:00.291Z,68.27
2023-03-31T14:37:31.052Z,67.56
2023-03-31T14:40:00.139Z,67.05
2023-03-31T14:42:31.202Z,66.60
2023-03-31T14:45:03.356Z,66.01
2023-03-31T14:47:32.133Z,65.71
2023-03-31T14:50:02.950Z,65.38
2023-03-31T14:52:36.032Z,65.00
2023-03-31T14:55:04.611Z,64.97
2023-03-31T14:57:34.329Z,65.09
2023-03-31T15:00:05.416Z,65.24
2023-03-31T15:02:35.603Z,65.75
2023-03-31T15:05:05.651Z,65.87
2023-03-31T15:07:36.289Z,66.06
2023-03-31T15:10:06.250Z,66.77
2023-03-31T15:12:35.261Z,67.02
2023-03-31T15:15:06.365Z,66.74
2023-03-31T15:17:39.302Z,66.84
2023-03-31T15:20:25.719Z,66.55
2023-03-31T15:22:55.681Z,66.79
2023-03-31T15:25:25.940Z,66.60
2023-03-31T15:27:56.021Z,66.39
2023-03-31T15:30:26.239Z,65.74
2023-03-31T15:32:58.959Z,65.43
2023-03-31T15:35:38.033Z,65.31
2023-03-31T15:38:08.141Z,65.25
2023-03-31T15:40:39.868Z,65.59
2023-03-31T15:43:24.350Z,65.54
2023-03-31T15:45:55.320Z,65.39
2023-03-31T15:48:24.993Z,65.44
2023-03-31T15:51:00.192Z,65.50
2023-03-31T15:53:37.436Z,65.25
2023-03-31T15:56:07.126Z,65.20
2023-03-31T15:58:46.388Z,65.25
2023-03-31T16:01:17.935Z,65.56
2023-03-31T16:03:46.645Z,65.63
2023-03-31T16:06:22.426Z,65.67
2023-03-31T16:08:57.593Z,66.03
2023-03-31T16:11:28.493Z,66.33
2023-03-31T16:14:01.315Z,66.11
2023-03-31T16:16:30.949Z,66.04
2023-03-31T16:19:04.387Z,66.22
2023-03-31T16:21:37.427Z,66.70
2023-03-31T16:24:08.034Z,66.90
2023-03-31T16:26:37.844Z,67.09
2023-03-31T16:29:06.778Z,67.76
2023-03-31T16:31:36.647Z,67.90
2023-03-31T16:34:06.442Z,68.02
2023-03-31T16:36:35.192Z,68.18
2023-03-31T16:39:05.517Z,67.87
2023-03-31T16:41:36.902Z,68.75
2023-03-31T16:44:06.597Z,68.92
2023-03-31T16:46:35.074Z,69.11
2023-03-31T16:49:03.475Z,69.57
2023-03-31T16:51:31.902Z,69.45
2023-03-31T16:54:00.288Z,69.64
2023-03-31T16:56:28.806Z,70.26
2023-03-31T16:58:59.215Z,70.40
2023-03-31T17:01:28.316Z,69.93
2023-03-31T17:03:57.025Z,70.57
2023-03-31T17:06:25.658Z,70.79
2023-03-31T17:08:54.091Z,70.74
2023-03-31T17:11:23.020Z,71.44
2023-03-31T17:13:51.397Z,71.06
2023-03-31T17:16:29.425Z,71.37
2023-03-31T17:19:05.209Z,72.10
2023-03-31T17:21:33.561Z,71.78
2023-03-31T17:24:03.252Z,72.54
2023-03-31T17:26:32.047Z,72.31
2023-03-31T17:29:00.747Z,72.32
2023-03-31T17:31:32.144Z,72.71
2023-03-31T17:34:01.628Z,72.27
2023-03-31T17:36:30.159Z,71.89
2023-03-31T17:39:00.582Z,71.57
2023-03-31T17:41:30.178Z,71.11
2023-03-31T17:43:58.953Z,71.04
2023-03-31T17:46:27.581Z,70.42
2023-03-31T17:48:58.890Z,69.53
2023-03-31T17:51:28.026Z,68.26
2023-03-31T17:53:56.407Z,67.41
2023-03-31T17:56:27.443Z,66.20
2023-03-31T17:58:57.464Z,65.85
2023-03-31T18:01:26.102Z,65.75
2023-03-31T18:03:57.879Z,65.25
2023-03-31T18:06:26.441Z,64.83
2023-03-31T18:08:54.884Z,65.04
2023-03-31T18:11:23.435Z,64.59
2023-03-31T18:13:51.988Z,64.56
2023-03-31T18:16:20.546Z,63.98
2023-03-31T18:18:49.235Z,64.08
2023-03-31T18:21:19.159Z,64.06
2023-03-31T18:23:52.702Z,64.46
2023-03-31T18:26:22.086Z,64.21
2023-03-31T18:28:50.598Z,64.83
2023-03-31T18:31:19.137Z,64.42
2023-03-31T18:33:48.007Z,64.92
2023-03-31T18:36:18.081Z,64.48
2023-03-31T18:38:48.487Z,64.89
2023-03-31T18:41:17.806Z,64.65
2023-03-31T18:43:48.015Z,64.70
2023-03-31T18:46:16.583Z,65.12
2023-03-31T18:48:45.006Z,65.02
2023-03-31T18:51:14.443Z,64.96
2023-03-31T18:53:42.933Z,65.20
2023-03-31T18:56:12.868Z,65.50
2023-03-31T18:58:41.307Z,65.36
2023-03-31T19:01:09.760Z,65.41
2023-03-31T19:03:38.263Z,65.82
2023-03-31T19:06:10.266Z,65.91
2023-03-31T19:08:39.311Z,65.87
2023-03-31T19:11:08.310Z,66.28
2023-03-31T19:13:38.455Z,66.37
2023-03-31T19:16:07.489Z,66.35
2023-03-31T19:18:36.515Z,66.38
2023-03-31T19:21:05.045Z,66.36
2023-03-31T19:23:34.449Z,66.46
2023-03-31T19:26:04.082Z,66.42
2023-03-31T19:28:32.625Z,66.18
2023-03-31T19:31:04.965Z,66.10
2023-03-31T19:33:33.583Z,66.18
2023-03-31T19:36:02.243Z,66.14
2023-03-31T19:38:32.442Z,66.04
2023-03-31T19:41:01.371Z,66.14
2023-03-31T19:43:30.882Z,66.24
2023-03-31T19:46:00.561Z,66.46
2023-03-31T19:48:34.291Z,66.61
2023-03-31T19:51:06.242Z,66.75
2023-03-31T19:53:35.112Z,66.96
2023-03-31T19:56:04.913Z,67.24
2023-03-31T19:58:35.435Z,67.38
2023-03-31T20:01:04.829Z,67.74
2023-03-31T20:03:35.149Z,68.01
2023-03-31T20:06:06.212Z,68.39
2023-03-31T20:08:35.090Z,68.81
2023-03-31T20:11:04.500Z,69.43
2023-03-31T20:13:35.919Z,69.89
2023-03-31T20:16:06.238Z,70.23
2023-03-31T20:18:37.340Z,70.92
2023-03-31T20:21:07.085Z,71.42
2023-03-31T20:23:36.852Z,71.74
2023-03-31T20:26:08.499Z,71.91
2023-03-31T20:28:37.917Z,72.05
2023-03-31T20:31:09.470Z,72.05
2023-03-31T20:33:39.391Z,72.27
2023-03-31T20:36:09.104Z,72.34
2023-03-31T20:38:38.114Z,72.75
2023-03-31T20:41:06.759Z,72.82
2023-03-31T20:43:35.882Z,73.08
2023-03-31T20:46:05.313Z,73.42
2023-03-31T20:48:36.567Z,73.63
2023-03-31T20:51:07.789Z,73.77
2023-03-31T20:53:42.343Z,73.91
2023-03-31T20:56:11.232Z,74.56
2023-03-31T20:58:41.116Z,74.66
2023-03-31T21:01:11.190Z,74.83
2023-03-31T21:03:39.683Z,74.89
2023-03-31T21:06:11.332Z,74.91
2023-03-31T21:08:40.906Z,75.46
2023-03-31T21:11:10.304Z,75.69
2023-03-31T21:13:39.071Z,75.92
2023-03-31T21:16:07.545Z,76.23
2023-03-31T21:18:37.755Z,76.43
2023-03-31T21:21:07.685Z,76.73
2023-03-31T21:23:38.098Z,76.59
2023-03-31T21:26:07.641Z,77.13
2023-03-31T21:28:37.717Z,77.29
2023-03-31T21:31:07.296Z,77.54
2023-03-31T21:33:37.962Z,77.83
2023-03-31T21:36:08.011Z,77.49
2023-03-31T21:38:38.306Z,77.69
2023-03-31T21:41:07.957Z,77.73
2023-03-31T21:43:36.907Z,77.87
2023-03-31T21:46:05.503Z,77.88
2023-03-31T21:48:34.205Z,78.23
2023-03-31T21:51:03.275Z,78.01
2023-03-31T21:53:32.634Z,78.58
2023-03-31T21:56:02.943Z,78.57
2023-03-31T21:58:31.379Z,78.80
2023-03-31T22:01:01.356Z,79.11
2023-03-31T22:03:32.520Z,79.29
2023-03-31T22:06:01.647Z,79.39
2023-03-31T22:08:31.845Z,79.72
2023-03-31T22:11:00.701Z,79.26
2023-03-31T22:13:31.076Z,80.23
2023-03-31T22:16:02.133Z,80.40
2023-03-31T22:18:30.716Z,80.41
2023-03-31T22:20:59.486Z,80.83
2023-03-31T22:23:28.708Z,81.12
2023-03-31T22:25:57.132Z,82.00
2023-03-31T22:28:25.590Z,82.13
2023-03-31T22:30:55.400Z,82.56
2023-03-31T22:33:23.830Z,82.41
2023-03-31T22:35:52.234Z,82.79
2023-03-31T22:38:20.709Z,82.84
2023-03-31T22:40:49.121Z,83.15
2023-03-31T22:43:17.831Z,83.41
2023-03-31T22:45:46.380Z,83.44
2023-03-31T22:48:16.328Z,83.74
2023-03-31T22:50:45.878Z,83.99
2023-03-31T22:53:14.344Z,84.08
2023-03-31T22:55:44.190Z,84.17
2023-03-31T22:58:23.969Z,83.91
2023-03-31T23:00:58.454Z,84.38
2023-03-31T23:03:28.473Z,84.37
2023-03-31T23:05:56.941Z,84.49
2023-03-31T23:08:25.340Z,84.35
2023-03-31T23:10:58.324Z,84.43
2023-03-31T23:13:26.839Z,84.42
2023-03-31T23:15:55.752Z,85.29
2023-03-31T23:18:25.141Z,84.51
2023-03-31T23:20:55.030Z,84.97
2023-03-31T23:23:23.289Z,85.29
2023-03-31T23:25:51.741Z,84.15
2023-03-31T23:28:20.195Z,84.95
2023-03-31T23:30:53.228Z,84.82
2023-03-31T23:33:21.748Z,84.99
2023-03-31T23:35:51.316Z,85.26
2023-03-31T23:38:21.466Z,85.08
2023-03-31T23:40:49.866Z,84.47
2023-03-31T23:43:18.318Z,84.96
2023-03-31T23:45:47.040Z,85.32
2023-03-31T23:48:15.685Z,85.01
2023-03-31T23:50:44.067Z,85.30
2023-03-31T23:53:13.112Z,85.22
2023-03-31T23:55:42.953Z,85.41
2023-03-31T23:58:11.435Z,85.03
